createdAt,value
2022-10-15T00:06:49.582Z,100515.09
2022-10-15T00:17:10.949Z,100496.75
2022-10-15T00:27:33.239Z,100493.69
2022-10-15T00:37:54.623Z,100502.47
2022-10-15T00:48:15.992Z,100502.03
2022-10-15T00:58:37.361Z,100500.59
2022-10-15T01:08:59.926Z,100510.94
2022-10-15T01:19:21.272Z,100495.53
2022-10-15T01:29:54.964Z,100498.69
2022-10-15T01:40:22.196Z,100493.97
2022-10-15T01:50:48.470Z,100481.16
2022-10-15T02:01:09.912Z,100481.59
2022-10-15T02:11:35.920Z,100473.28
2022-10-15T02:22:01.315Z,100466.38
2022-10-15T02:32:23.675Z,100461.63
2022-10-15T02:42:45.202Z,100468.75
2022-10-15T02:53:06.953Z,100456.81
2022-10-15T03:03:28.357Z,100457.78
2022-10-15T03:13:49.827Z,100453.53
2022-10-15T03:24:11.188Z,100459.00
2022-10-15T03:34:32.559Z,100451.00
2022-10-15T03:44:53.925Z,100458.28
2022-10-15T03:55:15.279Z,100449.25
2022-10-15T04:05:36.948Z,100442.34
2022-10-15T04:15:58.282Z,100440.59
2022-10-15T04:26:19.640Z,100442.84
2022-10-15T04:36:41.042Z,100455.00
2022-10-15T04:47:02.528Z,100452.84
2022-10-15T04:57:24.204Z,100457.66
2022-10-15T05:07:45.794Z,100459.78
2022-10-15T05:18:07.184Z,100463.69
2022-10-15T05:28:29.313Z,100473.19
2022-10-15T05:38:52.087Z,100473.56
2022-10-15T05:49:13.486Z,100464.75
2022-10-15T05:59:34.882Z,100478.56
2022-10-15T06:09:56.227Z,100471.19
2022-10-15T06:20:17.582Z,100469.50
2022-10-15T06:30:38.930Z,100486.16
2022-10-15T06:41:03.521Z,100478.81
2022-10-15T06:51:24.914Z,100493.66
2022-10-15T07:01:46.280Z,100489.72
2022-10-15T07:12:07.638Z,100500.63
2022-10-15T07:22:28.968Z,100514.09
2022-10-15T07:32:50.380Z,100505.97
2022-10-15T07:43:11.870Z,100496.31
2022-10-15T07:53:33.877Z,100492.41
2022-10-15T08:03:55.262Z,100488.59
2022-10-15T08:14:17.745Z,100496.63
2022-10-15T08:24:39.093Z,100482.66
2022-10-15T08:35:00.459Z,100500.31
2022-10-15T08:45:25.632Z,100491.41
2022-10-15T08:55:49.854Z,100478.00
2022-10-15T09:06:11.181Z,100491.47
2022-10-15T09:16:34.044Z,100478.75
2022-10-15T09:27:14.064Z,100484.50
2022-10-15T09:37:43.127Z,100479.56
2022-10-15T09:48:13.794Z,100465.31
2022-10-15T09:58:47.345Z,100463.97
2022-10-15T10:09:15.026Z,100456.00
2022-10-15T10:19:36.403Z,100453.28
2022-10-15T10:30:02.511Z,100457.94
2022-10-15T10:40:26.869Z,100461.94
2022-10-15T10:50:48.395Z,100463.00
2022-10-15T11:01:13.731Z,100453.41
2022-10-15T11:11:47.249Z,100462.03
2022-10-15T11:22:14.840Z,100443.19
2022-10-15T11:33:01.805Z,100450.09
2022-10-15T11:43:52.974Z,100444.38
2022-10-15T11:54:14.341Z,100429.13
2022-10-15T12:04:41.295Z,100407.47
2022-10-15T12:15:11.958Z,100384.16
2022-10-15T12:25:36.428Z,100373.34
2022-10-15T12:36:03.322Z,100361.00
2022-10-15T12:46:35.506Z,100349.56
2022-10-15T12:56:56.902Z,100351.41
2022-10-15T13:07:18.280Z,100328.09
2022-10-15T13:17:39.805Z,100331.81
2022-10-15T13:28:01.149Z,100307.06
2022-10-15T13:38:23.865Z,100319.00
2022-10-15T13:48:45.246Z,100310.19
2022-10-15T13:59:06.615Z,100304.81
2022-10-15T14:09:28.457Z,100297.03
2022-10-15T14:20:14.464Z,100296.56
2022-10-15T14:30:36.819Z,100301.31
2022-10-15T14:41:03.578Z,100311.53
2022-10-15T14:51:29.335Z,100307.97
2022-10-15T15:02:13.652Z,100301.06
2022-10-15T15:12:35.488Z,100296.06
2022-10-15T15:22:56.972Z,100285.56
2022-10-15T15:33:18.404Z,100291.66
2022-10-15T15:43:39.837Z,100282.81
2022-10-15T15:54:04.453Z,100298.28
2022-10-15T16:04:25.852Z,100299.66
2022-10-15T16:14:49.606Z,100300.72
2022-10-15T16:25:10.973Z,100309.97
2022-10-15T16:35:32.422Z,100311.25
2022-10-15T16:45:57.247Z,100322.56
2022-10-15T16:56:20.918Z,100336.09
2022-10-15T17:06:42.318Z,100346.63
2022-10-15T17:17:03.798Z,100360.16
2022-10-15T17:27:25.148Z,100365.41
2022-10-15T17:37:47.168Z,100385.19
2022-10-15T17:48:08.520Z,100404.81
2022-10-15T17:58:29.869Z,100427.38
2022-10-15T18:08:51.877Z,100451.28
2022-10-15T18:19:13.326Z,100455.59
2022-10-15T18:29:36.017Z,100491.56
2022-10-15T18:39:57.389Z,100510.94
2022-10-15T18:50:18.736Z,100525.03
2022-10-15T19:00:40.194Z,100537.06
2022-10-15T19:11:08.667Z,100549.34
2022-10-15T19:21:30.699Z,100568.84
2022-10-15T19:31:52.336Z,100579.00
2022-10-15T19:42:14.271Z,100586.97
2022-10-15T19:52:35.662Z,100590.16
2022-10-15T20:02:57.005Z,100594.34
2022-10-15T20:13:19.205Z,100601.06
2022-10-15T20:23:41.438Z,100606.31
2022-10-15T20:34:03.194Z,100615.28
2022-10-15T20:44:24.572Z,100645.13
2022-10-15T20:54:46.068Z,100657.22
2022-10-15T21:05:07.595Z,100649.75
2022-10-15T21:15:30.611Z,100653.56
2022-10-15T21:25:52.004Z,100637.75
2022-10-15T21:36:14.657Z,100639.03
2022-10-15T21:46:36.161Z,100658.34
2022-10-15T21:56:57.538Z,100676.03
2022-10-15T22:07:18.873Z,100690.25
2022-10-15T22:17:40.240Z,100695.34
2022-10-15T22:28:01.594Z,100701.50
2022-10-15T22:38:22.987Z,100706.94
2022-10-15T22:48:44.446Z,100716.56
2022-10-15T22:59:05.939Z,100708.22
2022-10-15T23:09:27.320Z,100714.19
2022-10-15T23:19:49.188Z,100723.28
2022-10-15T23:30:20.994Z,100722.06
2022-10-15T23:40:45.620Z,100737.81
2022-10-15T23:51:20.669Z,100744.75
